Share

Bangkok (Suvarnabhumi), Thailand

1:42 PM ICT on April 25, 2014 (GMT +0700)
Bangkok (Suvarnabhumi) (VTBS) Elev 7 ft | 13.36 °N, 100.98 °E | Change Station

Current weather conditions updated 12 minutes ago

Mostly Cloudy
Mostly Cloudy
95 °F
Feels Like 104 °F
N
10
Wind Variable Wind from South
Sunrise 5:57 AM
Sunset 6:30 PM
Moon Waning Crescent

Today is forecast to be nearly the same temperature as yesterday.

Pressure 29.80 in
Visibility 6.2 miles
Clouds Few 2000 ft
Mostly Cloudy 30000 ft
Heat Index 104 °F
Dew Point 73 °F
Humidity 49%
Rainfall 0.00 in
Snow Depth Not available.
UV 9 out of 16
Pollen Not available.
Air Quality Not available.
Flu Activity Not available.
METAR VTBS 250630Z 18009KT 150V250 9999 FEW020 BKN300 35/23 Q1009 NOSIG

More Conditions Fewer Conditions

Pressure 29.80 in
Visibility 6.2 miles
Clouds Few 2000 ft
Mostly Cloudy 30000 ft
Heat Index 104 °F
Dew Point 73 °F
Humidity 49%
Rainfall 0.00 in
Snow Depth Not available.
UV 9 out of 16
Pollen Not available.
Air Quality Not available.
Flu Activity Not available.
METAR VTBS 250630Z 18009KT 150V250 9999 FEW020 BKN300 35/23 Q1009 NOSIG

More Conditions Fewer Conditions

10-Day Weather Forecast

Almanac

Astronomy

Apr. 25, 2014 Rise Set
Actual Time 5:57 AM ICT 6:30 PM ICT
Civil Twilight 5:36 AM ICT 6:52 PM ICT
Nautical Twilight 5:10 AM ICT 7:18 PM ICT
Astronomical Twilight 4:44 AM ICT 7:43 PM ICT
Moon 2:41 AM ICT 2:58 PM ICT
Length of Visible Light 13h 16m
Length of Day
12h 32m
Tomorrow will be 0m 39s longer.
Waning Crescent, 19% of the Moon is Illuminated
Today
Waning Crescent
Apr 29
New
May 6
First Quarter
May 14
Full
May 21
Last Quarter

Yesterday's Extremes

Country Highs Country Lows

Community

  • Deer in evening light
    Deer in evening light
  • Critter
    Critter
  • Jone Runs Falls
    Jone Runs Falls
  • Easter in Shenandoah National Park
    Easter in Shenandoah National Park
  • Sunset at Apalachicola Bay, Florida
    Sunset at Apalachicola Bay, Florida

WunderPhotos

Upload Photos

1,704,870 photos uploaded!

WunderBlogs® & News

Nearby

Snow Depth

Not available.

Coastal Water Temperatures

Place Temperature
No Stations Reporting

Earthquake Activity

City Distance Mag. Time & Date
No recent earthquake activity has been reported nearby.
Minimum magnitude displayed is 2.5.

Nearby Weather Stations

There are no personal weather stations in this area.

What do you think?

We're not finished. Please let us know what you like, what you don't like, and what you are still missing.